createdAt,value
2023-03-18T00:01:41.871Z,14.84
2023-03-18T00:04:08.518Z,14.15
2023-03-18T00:06:36.300Z,14.97
2023-03-18T00:09:02.831Z,14.67
2023-03-18T00:11:29.378Z,15.12
2023-03-18T00:13:55.913Z,15.14
2023-03-18T00:16:22.595Z,15.66
2023-03-18T00:18:49.959Z,15.29
2023-03-18T00:21:16.850Z,15.11
2023-03-18T00:23:43.859Z,15.94
2023-03-18T00:26:10.334Z,16.04
2023-03-18T00:28:37.523Z,16.23
2023-03-18T00:31:08.695Z,16.09
2023-03-18T00:33:36.920Z,16.13
2023-03-18T00:36:04.293Z,16.08
2023-03-18T00:38:30.962Z,16.14
2023-03-18T00:41:16.155Z,16.73
2023-03-18T00:43:49.372Z,16.89
2023-03-18T00:46:17.701Z,16.50
2023-03-18T00:48:44.870Z,15.97
2023-03-18T00:51:14.209Z,16.12
2023-03-18T00:53:41.841Z,15.65
2023-03-18T00:56:09.046Z,16.66
2023-03-18T00:58:36.937Z,16.77
2023-03-18T01:01:08.112Z,16.48
2023-03-18T01:03:35.618Z,16.91
2023-03-18T01:06:04.270Z,17.65
2023-03-18T01:08:30.996Z,17.24
2023-03-18T01:10:58.134Z,16.92
2023-03-18T01:13:25.952Z,16.95
2023-03-18T01:15:53.237Z,16.88
2023-03-18T01:18:20.072Z,17.04
2023-03-18T01:20:47.309Z,17.15
2023-03-18T01:23:13.964Z,17.15
2023-03-18T01:25:40.751Z,18.83
2023-03-18T01:28:07.557Z,19.86
2023-03-18T01:30:35.511Z,19.73
2023-03-18T01:33:04.717Z,18.84
2023-03-18T01:35:32.285Z,19.36
2023-03-18T01:40:26.857Z,18.39
2023-03-18T01:42:58.404Z,19.19
2023-03-18T01:45:29.790Z,18.86
2023-03-18T01:47:57.256Z,19.29
2023-03-18T01:50:43.711Z,19.46
2023-03-18T01:53:12.592Z,19.44
2023-03-18T01:55:41.078Z,19.69
2023-03-18T01:58:11.708Z,19.38
2023-03-18T02:00:42.195Z,19.65
2023-03-18T02:03:09.070Z,19.38
2023-03-18T02:05:35.938Z,18.77
2023-03-18T02:08:02.765Z,20.31
2023-03-18T02:10:31.225Z,20.42
2023-03-18T02:13:00.504Z,21.31
2023-03-18T02:15:28.465Z,20.95
2023-03-18T02:18:03.050Z,20.80
2023-03-18T02:20:47.113Z,21.82
2023-03-18T02:23:22.922Z,20.86
2023-03-18T02:25:50.055Z,21.94
2023-03-18T02:28:21.936Z,21.64
2023-03-18T02:30:51.994Z,21.50
2023-03-18T02:33:21.204Z,21.78
2023-03-18T02:35:51.707Z,21.03
2023-03-18T02:38:18.304Z,22.55
2023-03-18T02:40:44.911Z,23.10
2023-03-18T02:43:37.653Z,22.01
2023-03-18T02:46:19.883Z,21.35
2023-03-18T02:48:47.799Z,23.55
2023-03-18T02:51:16.320Z,22.65
2023-03-18T02:53:44.251Z,23.34
2023-03-18T02:56:10.853Z,23.46
2023-03-18T02:58:38.143Z,21.94
2023-03-18T03:01:06.550Z,22.10
2023-03-18T03:03:35.116Z,22.25
2023-03-18T03:06:02.348Z,22.48
2023-03-18T03:08:29.279Z,22.36
2023-03-18T03:10:56.231Z,21.94
2023-03-18T03:13:24.524Z,22.74
2023-03-18T03:15:51.285Z,23.82
2023-03-18T03:18:17.926Z,24.46
2023-03-18T03:20:45.688Z,23.67
2023-03-18T03:23:13.920Z,23.58
2023-03-18T03:25:40.457Z,23.96
2023-03-18T03:28:07.371Z,23.83
2023-03-18T03:30:34.753Z,23.97
2023-03-18T03:33:01.482Z,24.28
2023-03-18T03:35:28.207Z,24.57
2023-03-18T03:37:54.750Z,23.68
2023-03-18T03:40:21.663Z,23.73
2023-03-18T03:42:48.329Z,24.35
2023-03-18T03:45:16.235Z,23.89
2023-03-18T03:47:43.798Z,24.60
2023-03-18T03:50:11.541Z,23.18
2023-03-18T03:52:39.035Z,23.24
2023-03-18T03:55:07.589Z,23.19
2023-03-18T03:57:35.654Z,23.70
2023-03-18T04:00:03.357Z,24.07
2023-03-18T04:02:30.102Z,24.14
2023-03-18T04:04:56.618Z,24.80
2023-03-18T04:07:23.127Z,24.07
2023-03-18T04:09:50.173Z,24.91
2023-03-18T04:12:19.582Z,24.57
2023-03-18T04:14:47.775Z,24.67
2023-03-18T04:17:14.809Z,24.64
2023-03-18T04:19:41.597Z,24.84
2023-03-18T04:22:08.138Z,25.15
2023-03-18T04:24:35.422Z,25.55
2023-03-18T04:27:02.290Z,25.64
2023-03-18T04:29:28.867Z,26.63
2023-03-18T04:31:56.681Z,25.46
2023-03-18T04:34:23.213Z,26.95
2023-03-18T04:36:49.685Z,27.80
2023-03-18T04:39:16.477Z,27.89
2023-03-18T04:41:43.017Z,27.74
2023-03-18T04:44:09.553Z,27.82
2023-03-18T04:46:36.339Z,28.03
2023-03-18T04:49:03.088Z,27.70
2023-03-18T04:51:30.040Z,26.99
2023-03-18T04:53:56.560Z,26.50
2023-03-18T04:56:23.269Z,27.48
2023-03-18T04:58:50.016Z,26.16
2023-03-18T05:01:16.627Z,26.67
2023-03-18T05:03:43.618Z,26.16
2023-03-18T05:06:14.568Z,26.65
2023-03-18T05:08:41.120Z,26.90
2023-03-18T05:11:07.680Z,25.80
2023-03-18T05:13:34.489Z,26.06
2023-03-18T05:16:01.530Z,26.41
2023-03-18T05:18:28.062Z,25.54
2023-03-18T05:20:55.159Z,25.85
2023-03-18T05:23:22.566Z,26.27
2023-03-18T05:25:49.097Z,26.82
2023-03-18T05:28:15.917Z,25.83
2023-03-18T05:30:43.026Z,26.39
2023-03-18T05:33:09.653Z,26.53
2023-03-18T05:35:36.458Z,25.83
2023-03-18T05:38:03.044Z,25.69
2023-03-18T05:40:30.156Z,25.33
2023-03-18T05:42:56.971Z,26.29
2023-03-18T05:45:24.464Z,25.98
2023-03-18T05:47:51.002Z,26.00
2023-03-18T05:50:37.894Z,26.15
2023-03-18T05:53:05.584Z,26.25
2023-03-18T05:55:33.076Z,26.02
2023-03-18T05:58:00.381Z,26.18
2023-03-18T06:00:30.082Z,25.96
2023-03-18T06:02:58.531Z,25.98
2023-03-18T06:05:26.129Z,25.47
2023-03-18T06:07:54.019Z,26.05
2023-03-18T06:10:22.695Z,25.91
2023-03-18T06:12:49.971Z,25.71
2023-03-18T06:15:17.480Z,25.52
2023-03-18T06:17:44.009Z,25.07
2023-03-18T06:20:11.827Z,25.28
2023-03-18T06:22:38.629Z,24.68
2023-03-18T06:25:08.064Z,25.29
2023-03-18T06:27:35.204Z,24.97
2023-03-18T06:30:04.778Z,25.86
2023-03-18T06:32:33.840Z,25.20
2023-03-18T06:35:00.552Z,25.87
2023-03-18T06:37:27.011Z,25.18
2023-03-18T06:39:53.630Z,25.80
2023-03-18T06:42:20.552Z,25.08
2023-03-18T06:44:50.813Z,25.41
2023-03-18T06:47:19.016Z,26.42
2023-03-18T06:49:46.921Z,26.27
2023-03-18T06:52:14.267Z,26.70
2023-03-18T06:54:41.277Z,26.75
2023-03-18T06:57:08.583Z,25.88
2023-03-18T06:59:35.747Z,26.00
2023-03-18T07:02:03.250Z,25.40
2023-03-18T07:04:30.962Z,25.94
2023-03-18T07:06:57.794Z,25.73
2023-03-18T07:09:24.630Z,25.14
2023-03-18T07:11:51.151Z,25.78
2023-03-18T07:14:18.371Z,25.84
2023-03-18T07:16:45.958Z,24.81
2023-03-18T07:19:12.564Z,25.19
2023-03-18T07:21:40.660Z,24.05
2023-03-18T07:24:07.421Z,23.12
2023-03-18T07:26:34.844Z,22.61
2023-03-18T07:29:01.828Z,22.56
2023-03-18T07:31:28.468Z,21.40
2023-03-18T07:33:55.067Z,21.97
2023-03-18T07:36:21.618Z,20.99
2023-03-18T07:38:48.167Z,21.99
2023-03-18T07:41:15.262Z,21.07
2023-03-18T07:43:41.804Z,21.41
2023-03-18T07:46:08.360Z,21.31
2023-03-18T07:48:34.973Z,20.91
2023-03-18T07:51:02.165Z,20.76
2023-03-18T07:53:29.117Z,20.89
2023-03-18T07:55:55.728Z,21.12
2023-03-18T07:58:22.442Z,21.27
2023-03-18T08:00:49.584Z,21.15
2023-03-18T08:03:16.794Z,20.29
2023-03-18T08:05:43.616Z,20.59
2023-03-18T08:08:10.128Z,21.68
2023-03-18T08:10:36.962Z,21.74
2023-03-18T08:13:04.067Z,22.34
2023-03-18T08:15:31.700Z,22.30
2023-03-18T08:17:58.475Z,23.07
2023-03-18T08:20:26.490Z,23.97
2023-03-18T08:22:53.568Z,23.43
2023-03-18T08:25:22.164Z,22.67
2023-03-18T08:27:48.682Z,24.03
2023-03-18T08:30:15.391Z,24.11
2023-03-18T08:32:42.236Z,22.67
2023-03-18T08:35:09.812Z,22.33
2023-03-18T08:37:36.656Z,21.97
2023-03-18T08:40:03.825Z,20.95
2023-03-18T08:42:30.529Z,24.81
2023-03-18T08:44:57.370Z,20.52
2023-03-18T08:47:25.267Z,19.98
2023-03-18T08:49:52.087Z,19.72
2023-03-18T08:52:19.032Z,20.11
2023-03-18T08:54:45.876Z,19.69
2023-03-18T08:57:12.714Z,19.24
2023-03-18T08:59:39.232Z,19.18
2023-03-18T09:02:05.906Z,18.88
2023-03-18T09:04:32.871Z,18.73
2023-03-18T09:07:01.538Z,18.20
2023-03-18T09:09:42.793Z,16.27
2023-03-18T09:12:11.938Z,16.73
2023-03-18T09:14:39.070Z,16.64
2023-03-18T09:17:06.457Z,16.81
2023-03-18T09:19:33.445Z,16.60
2023-03-18T09:22:00.003Z,17.45
2023-03-18T09:24:26.605Z,17.33
2023-03-18T09:26:53.201Z,16.76
2023-03-18T09:29:19.689Z,17.54
2023-03-18T09:31:46.938Z,17.58
2023-03-18T09:34:14.529Z,17.31
2023-03-18T09:36:42.250Z,17.20
2023-03-18T09:39:10.049Z,16.95
2023-03-18T09:41:56.815Z,17.23
2023-03-18T09:44:25.312Z,16.91
2023-03-18T09:47:01.149Z,16.55
2023-03-18T09:49:37.005Z,17.08
2023-03-18T09:52:16.584Z,18.00
2023-03-18T09:54:53.257Z,20.54
2023-03-18T09:57:25.509Z,22.15
2023-03-18T09:59:58.557Z,22.42
2023-03-18T10:02:37.494Z,22.84
2023-03-18T10:05:10.912Z,23.85
2023-03-18T10:07:41.588Z,24.16
2023-03-18T10:10:22.206Z,24.23
2023-03-18T10:12:53.237Z,25.24
2023-03-18T10:15:41.386Z,24.99
2023-03-18T10:18:13.454Z,25.07
2023-03-18T10:20:46.473Z,26.17
2023-03-18T10:23:25.165Z,25.31
2023-03-18T10:25:54.662Z,25.15
2023-03-18T10:28:40.212Z,24.42
2023-03-18T10:31:16.569Z,23.09
2023-03-18T10:33:46.394Z,23.87
2023-03-18T10:36:18.942Z,22.77
2023-03-18T10:38:50.844Z,22.70
2023-03-18T10:41:23.894Z,22.12
2023-03-18T10:43:54.910Z,22.16
2023-03-18T10:46:22.443Z,21.79
2023-03-18T10:48:53.879Z,20.76
2023-03-18T10:54:52.671Z,20.51
2023-03-18T10:57:29.054Z,19.25
2023-03-18T10:59:55.794Z,19.03
2023-03-18T11:02:41.066Z,18.97
2023-03-18T11:05:15.815Z,18.84
2023-03-18T11:08:03.610Z,19.26
2023-03-18T11:10:35.585Z,19.14
2023-03-18T11:13:02.829Z,19.07
2023-03-18T11:15:36.347Z,19.26
2023-03-18T11:18:03.347Z,18.99
2023-03-18T11:20:45.185Z,17.96
2023-03-18T11:23:36.000Z,18.50
2023-03-18T11:26:02.962Z,17.82
2023-03-18T11:28:30.091Z,18.04
2023-03-18T11:31:00.385Z,18.67
2023-03-18T11:33:33.176Z,18.04
2023-03-18T11:36:05.656Z,18.79
2023-03-18T11:38:34.464Z,18.97
2023-03-18T11:41:16.933Z,19.49
2023-03-18T11:44:01.599Z,19.72
2023-03-18T11:46:39.868Z,19.45
2023-03-18T11:49:13.404Z,19.42
2023-03-18T11:51:47.117Z,19.11
2023-03-18T11:54:16.754Z,18.67
2023-03-18T11:56:49.304Z,18.99
2023-03-18T11:59:15.752Z,17.90
2023-03-18T12:02:09.861Z,17.71
2023-03-18T12:04:54.214Z,17.13
2023-03-18T12:07:30.473Z,16.92
2023-03-18T12:10:14.919Z,16.01
2023-03-18T12:13:00.270Z,15.79
2023-03-18T12:15:47.840Z,14.30
2023-03-18T12:18:17.396Z,13.31
2023-03-18T12:20:51.444Z,14.38
2023-03-18T12:23:42.957Z,14.41
2023-03-18T12:26:18.505Z,15.00
2023-03-18T12:28:57.395Z,15.32
2023-03-18T12:31:29.806Z,15.94
2023-03-18T12:33:58.103Z,15.22
2023-03-18T12:36:36.894Z,15.35
2023-03-18T12:39:22.044Z,16.74
2023-03-18T12:42:07.623Z,17.32
2023-03-18T12:44:46.866Z,16.85
2023-03-18T12:47:27.562Z,16.73
2023-03-18T12:49:58.656Z,17.56
2023-03-18T12:52:34.599Z,18.60
2023-03-18T12:55:04.895Z,18.17
2023-03-18T12:57:45.250Z,18.22
2023-03-18T13:00:19.652Z,19.12
2023-03-18T13:02:54.352Z,19.14
2023-03-18T13:05:24.728Z,19.43
2023-03-18T13:08:06.585Z,19.31
2023-03-18T13:10:36.408Z,19.36
2023-03-18T13:13:07.782Z,18.94
2023-03-18T13:15:42.959Z,19.39
2023-03-18T13:18:18.111Z,19.22
2023-03-18T13:20:47.323Z,18.29
2023-03-18T13:23:26.334Z,18.16
2023-03-18T13:25:56.703Z,17.10
2023-03-18T13:28:23.275Z,17.01
2023-03-18T13:31:08.614Z,16.98
2023-03-18T13:34:04.126Z,15.90
2023-03-18T13:36:46.588Z,16.06
2023-03-18T13:39:25.520Z,15.70
2023-03-18T13:42:11.159Z,14.29
2023-03-18T13:44:43.461Z,14.02
2023-03-18T13:47:16.068Z,13.81
2023-03-18T13:49:44.528Z,13.62
2023-03-18T13:52:27.553Z,11.89
2023-03-18T13:54:54.302Z,10.18
2023-03-18T13:57:26.803Z,8.55
2023-03-18T14:00:13.869Z,7.25
2023-03-18T14:02:41.718Z,7.58
2023-03-18T14:05:47.013Z,7.24
2023-03-18T14:08:32.684Z,8.56
2023-03-18T14:11:28.850Z,7.87
2023-03-18T14:14:02.040Z,6.42
2023-03-18T14:16:30.481Z,5.76
2023-03-18T14:18:57.654Z,5.23
2023-03-18T14:21:28.030Z,5.24
2023-03-18T14:24:07.640Z,5.32
2023-03-18T14:26:34.646Z,5.19
2023-03-18T14:29:07.015Z,5.42
2023-03-18T14:31:50.533Z,6.63
2023-03-18T14:34:17.083Z,6.81
2023-03-18T14:36:43.594Z,6.95
2023-03-18T14:39:16.910Z,6.91
2023-03-18T14:41:47.011Z,6.37
2023-03-18T14:44:16.406Z,5.86
2023-03-18T14:46:46.023Z,4.83
2023-03-18T14:49:31.829Z,4.77
2023-03-18T14:52:00.190Z,5.75
2023-03-18T14:54:30.973Z,5.36
2023-03-18T14:56:58.203Z,4.90
2023-03-18T14:59:25.635Z,4.13
2023-03-18T15:01:53.854Z,3.93
2023-03-18T15:04:25.972Z,3.85
2023-03-18T15:06:54.656Z,3.81
2023-03-18T15:09:27.429Z,4.10
2023-03-18T15:11:54.793Z,4.87
2023-03-18T15:14:27.586Z,5.28
2023-03-18T15:16:55.078Z,5.20
2023-03-18T15:19:22.495Z,5.30
2023-03-18T15:21:50.270Z,5.41
2023-03-18T15:24:20.970Z,4.79
2023-03-18T15:26:56.216Z,3.83
2023-03-18T15:29:35.302Z,3.67
2023-03-18T15:32:10.363Z,3.66
2023-03-18T15:34:41.482Z,4.01
2023-03-18T15:37:23.885Z,3.72
2023-03-18T15:39:55.692Z,3.36
2023-03-18T15:42:23.348Z,2.99
2023-03-18T15:44:56.237Z,2.46
2023-03-18T15:47:30.858Z,2.07
2023-03-18T15:50:16.321Z,1.84
2023-03-18T15:52:42.987Z,1.51
2023-03-18T15:55:29.172Z,1.63
2023-03-18T15:57:57.265Z,1.67
2023-03-18T16:00:24.750Z,1.74
2023-03-18T16:02:51.676Z,1.74
2023-03-18T16:05:20.331Z,2.23
2023-03-18T16:07:48.048Z,2.35
2023-03-18T16:10:19.255Z,2.74
2023-03-18T16:12:53.642Z,2.64
2023-03-18T16:15:24.907Z,2.77
2023-03-18T16:17:53.503Z,3.04
2023-03-18T16:20:23.247Z,3.20
2023-03-18T16:22:50.924Z,3.48
2023-03-18T16:25:17.987Z,3.38
2023-03-18T16:27:49.469Z,3.44
2023-03-18T16:30:23.180Z,3.29
2023-03-18T16:32:50.109Z,3.40
2023-03-18T16:35:18.344Z,3.51
2023-03-18T16:37:47.295Z,3.83
2023-03-18T16:40:19.352Z,3.74
2023-03-18T16:42:48.272Z,4.26
2023-03-18T16:45:17.453Z,4.13
2023-03-18T16:47:49.289Z,4.06
2023-03-18T16:50:17.886Z,4.05
2023-03-18T16:52:45.451Z,4.16
2023-03-18T16:55:13.399Z,4.06
2023-03-18T16:57:42.498Z,3.63
2023-03-18T17:00:34.716Z,3.34
2023-03-18T17:03:01.640Z,3.31
2023-03-18T17:05:28.618Z,3.50
2023-03-18T17:07:55.876Z,3.30
2023-03-18T17:10:24.625Z,3.13
2023-03-18T17:12:51.157Z,3.24
2023-03-18T17:15:20.159Z,3.03
2023-03-18T17:17:47.522Z,3.05
2023-03-18T17:20:17.682Z,2.99
2023-03-18T17:22:45.132Z,3.23
2023-03-18T17:25:11.815Z,3.00
2023-03-18T17:27:43.789Z,3.14
2023-03-18T17:30:21.499Z,3.55
2023-03-18T17:32:48.775Z,3.45
2023-03-18T17:35:20.555Z,3.30
2023-03-18T17:37:48.256Z,3.66
2023-03-18T17:40:16.878Z,4.01
2023-03-18T17:42:45.112Z,3.87
2023-03-18T17:45:14.837Z,3.67
2023-03-18T17:47:41.494Z,3.56
2023-03-18T17:50:13.853Z,3.61
2023-03-18T17:52:40.571Z,3.86
2023-03-18T17:55:18.172Z,4.08
2023-03-18T17:57:45.574Z,3.94
2023-03-18T18:00:26.403Z,4.10
2023-03-18T18:02:58.610Z,3.91
2023-03-18T18:05:25.141Z,4.31
2023-03-18T18:07:53.074Z,4.31
2023-03-18T18:10:20.655Z,4.13
2023-03-18T18:12:49.851Z,4.37
2023-03-18T18:15:27.853Z,4.32
2023-03-18T18:17:54.776Z,4.41
2023-03-18T18:20:22.852Z,4.26
2023-03-18T18:22:55.047Z,4.62
2023-03-18T18:25:25.280Z,5.76
2023-03-18T18:27:51.911Z,5.68
2023-03-18T18:30:20.131Z,5.05
2023-03-18T18:32:46.720Z,5.50
2023-03-18T18:35:17.827Z,5.37
2023-03-18T18:37:44.862Z,5.12
2023-03-18T18:40:13.638Z,5.10
2023-03-18T18:42:42.068Z,5.61
2023-03-18T18:45:09.802Z,5.23
2023-03-18T18:47:37.555Z,6.32
2023-03-18T18:50:07.074Z,6.65
2023-03-18T18:52:34.216Z,6.14
2023-03-18T18:55:00.753Z,6.21
2023-03-18T18:57:29.230Z,6.91
2023-03-18T18:59:55.872Z,6.00
2023-03-18T19:02:30.474Z,5.16
2023-03-18T19:04:57.241Z,5.10
2023-03-18T19:07:25.215Z,4.65
2023-03-18T19:09:52.060Z,4.80
2023-03-18T19:12:19.184Z,4.28
2023-03-18T19:14:47.088Z,4.53
2023-03-18T19:17:19.768Z,4.55
2023-03-18T19:19:46.710Z,4.84
2023-03-18T19:22:15.507Z,4.53
2023-03-18T19:24:43.170Z,5.02
2023-03-18T19:27:22.585Z,4.69
2023-03-18T19:29:50.359Z,4.56
2023-03-18T19:32:21.105Z,4.84
2023-03-18T19:34:48.713Z,4.61
2023-03-18T19:37:22.537Z,4.73
2023-03-18T19:39:49.415Z,4.91
2023-03-18T19:42:17.813Z,4.33
2023-03-18T19:44:45.398Z,4.82
2023-03-18T19:47:20.860Z,4.65
2023-03-18T19:49:47.493Z,4.03
2023-03-18T19:52:19.061Z,4.08
2023-03-18T19:54:47.047Z,2.80
2023-03-18T19:57:16.768Z,1.62
2023-03-18T19:59:44.898Z,1.50
2023-03-18T20:02:28.773Z,2.05
2023-03-18T20:04:57.533Z,1.90
2023-03-18T20:07:26.033Z,2.02
2023-03-18T20:09:53.364Z,3.11
2023-03-18T20:12:32.839Z,4.09
2023-03-18T20:14:59.333Z,3.90
2023-03-18T20:17:30.537Z,2.49
2023-03-18T20:19:57.758Z,2.40
2023-03-18T20:22:30.284Z,2.38
2023-03-18T20:24:57.155Z,2.27
2023-03-18T20:27:24.111Z,2.58
2023-03-18T20:29:51.096Z,2.44
2023-03-18T20:32:17.717Z,2.66
2023-03-18T20:34:46.280Z,2.78
2023-03-18T20:37:36.158Z,2.92
2023-03-18T20:40:03.950Z,3.04
2023-03-18T20:42:30.862Z,3.30
2023-03-18T20:44:57.435Z,3.22
2023-03-18T20:47:23.929Z,3.22
2023-03-18T20:49:50.492Z,3.71
2023-03-18T20:52:28.870Z,3.52
2023-03-18T20:54:56.851Z,3.69
2023-03-18T20:57:23.715Z,3.79
2023-03-18T20:59:50.393Z,4.06
2023-03-18T21:02:19.926Z,3.80
2023-03-18T21:04:47.049Z,3.88
2023-03-18T21:07:13.620Z,3.98
2023-03-18T21:09:40.127Z,4.12
2023-03-18T21:12:06.819Z,4.48
2023-03-18T21:14:33.340Z,4.22
2023-03-18T21:16:59.983Z,4.87
2023-03-18T21:19:26.599Z,4.96
2023-03-18T21:21:53.347Z,4.46
2023-03-18T21:24:26.197Z,4.62
2023-03-18T21:27:04.181Z,4.35
2023-03-18T21:29:32.080Z,4.43
2023-03-18T21:31:59.796Z,4.26
2023-03-18T21:34:26.382Z,4.43
2023-03-18T21:36:53.307Z,3.82
2023-03-18T21:39:21.431Z,3.95
2023-03-18T21:41:48.331Z,4.10
2023-03-18T21:44:14.980Z,3.94
2023-03-18T21:46:41.612Z,3.63
2023-03-18T21:49:08.412Z,3.82
2023-03-18T21:51:39.653Z,3.69
2023-03-18T21:54:16.687Z,3.73
2023-03-18T21:56:43.249Z,3.43
2023-03-18T21:59:09.727Z,3.36
2023-03-18T22:01:36.367Z,3.31
2023-03-18T22:04:02.973Z,3.54
2023-03-18T22:06:29.938Z,3.85
2023-03-18T22:08:57.371Z,3.83
2023-03-18T22:11:24.052Z,3.99
2023-03-18T22:13:50.742Z,4.37
2023-03-18T22:16:18.743Z,4.35
2023-03-18T22:18:47.306Z,4.19
2023-03-18T22:21:17.515Z,4.00
2023-03-18T22:23:44.526Z,3.80
2023-03-18T22:26:13.939Z,3.82
2023-03-18T22:28:40.646Z,3.86
2023-03-18T22:31:14.161Z,3.61
2023-03-18T22:33:40.596Z,4.06
2023-03-18T22:36:10.936Z,4.38
2023-03-18T22:38:37.444Z,4.27
2023-03-18T22:41:04.309Z,4.51
2023-03-18T22:43:32.056Z,4.50
2023-03-18T22:45:59.696Z,4.61
2023-03-18T22:48:26.864Z,4.52
2023-03-18T22:50:54.006Z,4.22
2023-03-18T22:53:25.987Z,3.72
2023-03-18T22:55:56.682Z,3.85
2023-03-18T22:58:25.525Z,3.75
2023-03-18T23:00:53.252Z,3.87
2023-03-18T23:03:25.930Z,3.97
2023-03-18T23:05:53.297Z,4.19
2023-03-18T23:08:21.104Z,4.32
2023-03-18T23:10:49.557Z,4.15
2023-03-18T23:13:19.253Z,4.21
2023-03-18T23:15:45.982Z,4.17
2023-03-18T23:18:14.663Z,4.16
2023-03-18T23:20:42.718Z,4.02
2023-03-18T23:23:09.668Z,4.37
2023-03-18T23:25:36.522Z,4.17
2023-03-18T23:28:03.082Z,4.16
2023-03-18T23:30:30.387Z,4.46
2023-03-18T23:32:57.122Z,4.82
2023-03-18T23:35:23.916Z,4.80
2023-03-18T23:37:50.450Z,5.40
2023-03-18T23:40:17.617Z,5.55
2023-03-18T23:42:44.610Z,5.89
2023-03-18T23:45:11.827Z,6.18
2023-03-18T23:47:38.911Z,6.64
2023-03-18T23:50:06.036Z,6.96
2023-03-18T23:52:32.575Z,7.42
2023-03-18T23:54:59.061Z,7.36
2023-03-18T23:57:25.607Z,7.36
2023-03-18T23:59:52.191Z,7.68
